CTA weather

Catania-Fontanarossa Airport
Catania, Sicily, Italy

Public forecast

Using degrees Celsius for public forecast. Weather courtesy of forecast.io.

Current aviation weather report (METAR) for Catania-Fontanarossa Airport

Retrieved 2020/02/23 16:50 UTC (39 minutes ago):

LICC 231650Z 14004KT CAVOK 15/10 Q1027

Aviation forecast (TAF) for Catania-Fontanarossa Airport

Retrieved 2020/02/23 12:26 UTC (5 hours ago):

TAF LICC 231100Z 2312/2412 06010KT CAVOK BECMG 2319/2321 25007KT BECMG 2408/2410 06010KT